createdAt,value
2018-09-07T00:02:31.853Z,"    0"
2018-09-07T00:07:28.241Z,"    0"
2018-09-07T00:12:25.248Z,"    0"
2018-09-07T00:17:20.684Z,"    0"
2018-09-07T00:22:16.502Z,"    0"
2018-09-07T00:27:12.537Z,"    0"
2018-09-07T00:32:08.223Z,"    0"
2018-09-07T00:37:04.019Z,"    0"
2018-09-07T00:41:59.799Z,"    0"
2018-09-07T00:46:55.589Z,"    0"
2018-09-07T00:51:51.426Z,"    0"
2018-09-07T00:56:47.151Z,"    0"
2018-09-07T01:01:43.936Z,"    0"
2018-09-07T01:06:39.405Z,"    0"
2018-09-07T01:11:36.468Z,"    0"
2018-09-07T01:16:32.157Z,"    0"
2018-09-07T01:21:27.820Z,"    0"
2018-09-07T01:26:24.084Z,"    0"
2018-09-07T01:31:20.268Z,"    0"
2018-09-07T01:36:16.233Z,"    0"
2018-09-07T01:41:12.444Z,"    0"
2018-09-07T01:46:08.418Z,"    0"
2018-09-07T01:51:04.938Z,"    0"
2018-09-07T01:56:00.561Z,"    0"
2018-09-07T02:00:56.356Z,"    0"
2018-09-07T02:05:52.445Z,"    0"
2018-09-07T02:10:49.257Z,"    0"
2018-09-07T02:15:45.757Z,"    0"
2018-09-07T02:20:41.419Z,"    0"
2018-09-07T02:25:36.950Z,"    0"
2018-09-07T02:30:32.866Z,"    0"
2018-09-07T02:35:29.067Z,"    0"
2018-09-07T02:40:26.170Z,"    0"
2018-09-07T02:45:22.976Z,"    0"
2018-09-07T02:50:18.582Z,"    0"
2018-09-07T02:55:14.257Z,"    0"
2018-09-07T03:00:10.152Z,"    0"
2018-09-07T03:05:07.039Z,"    0"
2018-09-07T03:10:03.895Z,"    0"
2018-09-07T03:14:59.308Z,"    0"
2018-09-07T03:19:55.491Z,"    0"
2018-09-07T03:24:51.712Z,"    0"
2018-09-07T03:29:48.281Z,"    0"
2018-09-07T03:34:44.220Z,"    0"
2018-09-07T03:39:40.853Z,"    0"
2018-09-07T03:44:36.146Z,"    0"
2018-09-07T03:49:33.315Z,"    0"
2018-09-07T03:54:29.298Z,"    0"
2018-09-07T03:59:26.419Z,"    0"
2018-09-07T04:04:21.649Z,"    0"
2018-09-07T04:09:17.401Z,"    0"
2018-09-07T04:14:14.119Z,"    0"
2018-09-07T04:19:09.786Z,"    0"
2018-09-07T04:24:05.669Z,"    0"
2018-09-07T04:29:02.354Z,"    0"
2018-09-07T04:33:57.984Z,"    0"
2018-09-07T04:38:53.901Z,"    0"
2018-09-07T04:43:49.850Z,"    0"
2018-09-07T04:48:45.601Z,"    0"
2018-09-07T04:53:41.847Z,"    5"
2018-09-07T04:58:37.653Z,"    5"
2018-09-07T05:03:34.523Z,"   10"
2018-09-07T05:08:30.186Z,"   15"
2018-09-07T05:13:25.821Z,"   20"
2018-09-07T05:18:21.711Z,"   20"
2018-09-07T05:23:17.525Z,"   20"
2018-09-07T05:28:13.564Z,"   20"
2018-09-07T05:33:09.611Z,"   20"
2018-09-07T05:38:06.246Z,"   25"
2018-09-07T05:43:02.529Z,"   45"
2018-09-07T05:47:58.550Z,"   55"
2018-09-07T05:52:54.209Z,"   60"
2018-09-07T05:57:50.154Z,"   70"
2018-09-07T06:02:46.139Z,"   55"
2018-09-07T06:07:41.977Z,"   55"
2018-09-07T06:12:38.574Z,"   60"
2018-09-07T06:17:34.552Z,"   90"
2018-09-07T06:22:30.851Z,"  110"
2018-09-07T06:27:26.776Z,"  120"
2018-09-07T06:32:22.909Z,"   95"
2018-09-07T06:37:18.834Z,"  115"
2018-09-07T06:42:14.811Z,"   70"
2018-09-07T06:47:10.201Z,"  100"
2018-09-07T06:52:06.425Z,"  180"
2018-09-07T06:57:02.463Z,"  190"
2018-09-07T07:01:59.035Z,"  150"
2018-09-07T07:06:55.903Z,"  100"
2018-09-07T07:11:51.384Z,"   60"
2018-09-07T07:16:46.946Z,"   90"
2018-09-07T07:21:42.946Z,"   70"
2018-09-07T07:26:38.414Z,"   40"
2018-09-07T07:31:34.039Z,"   15"
2018-09-07T07:36:30.857Z,"   65"
2018-09-07T07:41:26.961Z,"  155"
2018-09-07T07:46:23.085Z,"  215"
2018-09-07T07:51:19.270Z,"  255"
2018-09-07T07:56:17.559Z,"  240"
2018-09-07T08:01:13.839Z,"  180"
2018-09-07T08:06:09.777Z,"  215"
2018-09-07T08:11:05.483Z,"  160"
2018-09-07T08:16:02.450Z,"  150"
2018-09-07T08:20:58.965Z,"  145"
2018-09-07T08:25:54.204Z,"  170"
2018-09-07T08:30:50.781Z,"  220"
2018-09-07T08:35:48.044Z,"  145"
2018-09-07T08:40:43.564Z,"  120"
2018-09-07T08:45:40.468Z,"  100"
2018-09-07T08:50:36.099Z,"  110"
2018-09-07T08:55:32.948Z,"  135"
2018-09-07T09:00:29.044Z,"  120"
2018-09-07T09:05:24.902Z,"   85"
2018-09-07T09:10:20.855Z,"   70"
2018-09-07T09:15:16.384Z,"   30"
2018-09-07T09:20:11.677Z,"   95"
2018-09-07T09:25:08.451Z,"   90"
2018-09-07T09:30:05.992Z,"  110"
2018-09-07T09:35:02.840Z,"   65"
2018-09-07T09:39:58.475Z,"   55"
2018-09-07T09:44:55.239Z,"   75"
2018-09-07T09:49:50.764Z,"   70"
2018-09-07T09:54:46.410Z,"   65"
2018-09-07T09:59:43.470Z,"   85"
2018-09-07T10:04:40.288Z,"  245"
2018-09-07T10:09:36.598Z,"   65"
2018-09-07T10:14:33.665Z,"  135"
2018-09-07T10:19:29.729Z,"  190"
2018-09-07T10:24:25.940Z,"  245"
2018-09-07T10:29:22.416Z,"  455"
2018-09-07T10:34:20.531Z,"  765"
2018-09-07T10:39:18.132Z,"  405"
2018-09-07T10:44:14.700Z,"  470"
2018-09-07T10:49:11.416Z,"  250"
2018-09-07T10:54:08.780Z,"  220"
2018-09-07T10:59:05.160Z," 1275"
2018-09-07T11:04:03.070Z,"  680"
2018-09-07T11:08:59.408Z," 1340"
2018-09-07T11:13:55.925Z,"  775"
2018-09-07T11:18:51.885Z,"  260"
2018-09-07T11:23:47.505Z," 1340"
2018-09-07T11:28:44.901Z," 1370"
2018-09-07T11:33:40.127Z,"  220"
2018-09-07T11:43:37.684Z," 1085"
2018-09-07T11:48:34.861Z," 1255"
2018-09-07T11:53:31.462Z," 1230"
2018-09-07T11:58:29.205Z," 1120"
2018-09-07T12:03:24.638Z,"  480"
2018-09-07T12:08:20.941Z,"  405"
2018-09-07T12:13:17.586Z,"  380"
2018-09-07T12:18:13.246Z,"  250"
2018-09-07T12:23:08.599Z,"  955"
2018-09-07T12:28:05.391Z,"  205"
2018-09-07T12:33:01.778Z,"  235"
2018-09-07T12:37:57.144Z,"  290"
2018-09-07T12:42:53.243Z,"  220"
2018-09-07T12:47:49.477Z,"  305"
2018-09-07T12:52:45.121Z,"  265"
2018-09-07T12:57:41.892Z,"  200"
2018-09-07T13:02:37.252Z,"  180"
2018-09-07T13:07:32.839Z,"  155"
2018-09-07T13:12:29.377Z,"  155"
2018-09-07T13:17:25.085Z,"  200"
2018-09-07T13:22:22.165Z,"  230"
2018-09-07T13:27:17.621Z,"  190"
2018-09-07T13:32:13.427Z,"  195"
2018-09-07T13:37:10.183Z,"  165"
2018-09-07T13:42:06.105Z,"  175"
2018-09-07T13:47:02.043Z,"  225"
2018-09-07T13:51:58.429Z,"  210"
2018-09-07T13:56:54.414Z,"  245"
2018-09-07T14:01:50.357Z,"  185"
2018-09-07T14:06:47.308Z,"  170"
2018-09-07T14:11:43.696Z,"  180"
2018-09-07T14:16:39.774Z,"  160"
2018-09-07T14:21:36.450Z,"  150"
2018-09-07T14:26:31.715Z,"  140"
2018-09-07T14:31:27.652Z,"  120"
2018-09-07T14:36:24.830Z,"  135"
2018-09-07T14:41:20.538Z,"  125"
2018-09-07T14:46:16.537Z,"  150"
2018-09-07T14:51:12.585Z,"  150"
2018-09-07T14:56:09.484Z,"  120"
2018-09-07T15:01:05.027Z,"  125"
2018-09-07T15:06:01.187Z,"  120"
2018-09-07T15:10:56.902Z,"  100"
2018-09-07T15:15:52.557Z,"   90"
2018-09-07T15:20:48.626Z,"   85"
2018-09-07T15:25:45.794Z,"   75"
2018-09-07T15:30:40.970Z,"   95"
2018-09-07T15:35:37.608Z,"  115"
2018-09-07T15:40:33.399Z,"   95"
2018-09-07T15:45:28.941Z,"  110"
2018-09-07T15:50:25.667Z,"   75"
2018-09-07T15:55:22.220Z,"   90"
2018-09-07T16:00:18.867Z,"   85"
2018-09-07T16:05:14.374Z,"   95"
2018-09-07T16:10:10.133Z,"   75"
2018-09-07T16:15:05.970Z,"   65"
2018-09-07T16:20:02.265Z,"   65"
2018-09-07T16:24:58.014Z,"   70"
2018-09-07T16:29:53.830Z,"   65"
2018-09-07T16:34:50.179Z,"   55"
2018-09-07T16:39:46.001Z,"   60"
2018-09-07T16:44:41.980Z,"   55"
2018-09-07T16:49:37.883Z,"   55"
2018-09-07T16:54:33.626Z,"   45"
2018-09-07T16:59:29.703Z,"   40"
2018-09-07T17:04:25.441Z,"   45"
2018-09-07T17:09:21.400Z,"   45"
2018-09-07T17:14:17.130Z,"   40"
2018-09-07T17:24:12.423Z,"   30"
2018-09-07T17:29:08.363Z,"   25"
2018-09-07T17:34:04.108Z,"   25"
2018-09-07T17:39:00.047Z,"   20"
2018-09-07T17:43:55.805Z,"   15"
2018-09-07T17:48:51.334Z,"   10"
2018-09-07T17:53:47.043Z,"   10"
2018-09-07T17:58:43.092Z,"    5"
2018-09-07T18:03:38.777Z,"    0"
2018-09-07T18:08:35.380Z,"    0"
2018-09-07T18:13:30.974Z,"    0"
2018-09-07T18:18:27.311Z,"    0"
2018-09-07T18:23:23.069Z,"    0"
2018-09-07T18:28:18.884Z,"    0"
2018-09-07T18:33:14.407Z,"    0"
2018-09-07T18:38:10.246Z,"    0"
2018-09-07T18:43:06.324Z,"    0"
2018-09-07T18:48:01.870Z,"    0"
2018-09-07T18:52:57.650Z,"    0"
2018-09-07T18:57:53.682Z,"    0"
2018-09-07T19:02:51.215Z,"    0"
2018-09-07T19:07:47.665Z,"    0"
2018-09-07T19:12:43.080Z,"    0"
2018-09-07T19:17:38.851Z,"    0"
2018-09-07T19:22:35.263Z,"    0"
2018-09-07T19:27:31.221Z,"    0"
2018-09-07T19:32:26.998Z,"    0"
2018-09-07T19:37:22.704Z,"    0"
2018-09-07T19:42:18.328Z,"    0"
2018-09-07T19:47:15.819Z,"    0"
2018-09-07T19:52:11.658Z,"    0"
2018-09-07T19:57:07.445Z,"    0"
2018-09-07T20:02:04.092Z,"    0"
2018-09-07T20:06:59.344Z,"    0"
2018-09-07T20:11:55.355Z,"    0"
2018-09-07T20:16:51.042Z,"    0"
2018-09-07T20:21:46.987Z,"    0"
2018-09-07T20:26:42.454Z,"    0"
2018-09-07T20:31:39.466Z,"    0"
2018-09-07T20:36:34.850Z,"    0"
2018-09-07T20:41:30.884Z,"    0"
2018-09-07T20:46:27.909Z,"    0"
2018-09-07T20:51:24.005Z,"    0"
2018-09-07T20:56:19.713Z,"    0"
2018-09-07T21:01:17.296Z,"    0"
2018-09-07T21:06:12.766Z,"    0"
2018-09-07T21:11:08.497Z,"    0"
2018-09-07T21:16:04.992Z,"    0"
2018-09-07T21:21:01.664Z,"    0"
2018-09-07T21:25:57.088Z,"    0"
2018-09-07T21:30:54.034Z,"    0"
2018-09-07T21:35:50.764Z,"    0"
2018-09-07T21:40:47.146Z,"    0"
2018-09-07T21:45:42.601Z,"    0"
2018-09-07T21:50:38.392Z,"    0"
2018-09-07T21:55:34.372Z,"    0"
2018-09-07T22:00:30.140Z,"    0"
2018-09-07T22:05:26.839Z,"    0"
2018-09-07T22:10:22.821Z,"    0"
2018-09-07T22:15:18.611Z,"    0"
2018-09-07T22:20:14.527Z,"    0"
2018-09-07T22:25:10.222Z,"    0"
2018-09-07T22:30:06.907Z,"    0"
2018-09-07T22:35:03.149Z,"    0"
2018-09-07T22:39:58.940Z,"    0"
2018-09-07T22:44:55.629Z,"    0"
2018-09-07T22:49:51.620Z,"    0"
2018-09-07T22:54:47.270Z,"    0"
2018-09-07T22:59:43.735Z,"    0"
2018-09-07T23:04:40.060Z,"    0"
2018-09-07T23:09:36.856Z,"    0"
2018-09-07T23:14:32.843Z,"    0"
2018-09-07T23:19:28.684Z,"    0"
2018-09-07T23:24:24.531Z,"    0"
2018-09-07T23:29:20.797Z,"    0"
2018-09-07T23:34:16.725Z,"    0"
2018-09-07T23:39:12.400Z,"    0"
2018-09-07T23:44:08.295Z,"    0"
2018-09-07T23:49:04.143Z,"    0"
2018-09-07T23:54:00.031Z,"    0"
2018-09-07T23:58:56.777Z,"    0"
